createdAt,value
2023-01-21T00:00:34.347Z,11.90
2023-01-21T00:01:35.964Z,14.80
2023-01-21T00:02:37.717Z,10.93
2023-01-21T00:03:39.499Z,12.30
2023-01-21T00:04:41.136Z,14.63
2023-01-21T00:05:42.664Z,12.27
2023-01-21T00:06:44.213Z,11.27
2023-01-21T00:07:45.728Z,11.10
2023-01-21T00:08:47.295Z,10.50
2023-01-21T00:09:48.868Z,11.63
2023-01-21T00:10:50.428Z,12.90
2023-01-21T00:11:51.929Z,11.13
2023-01-21T00:12:53.473Z,10.97
2023-01-21T00:13:55.244Z,11.73
2023-01-21T00:14:56.807Z,10.23
2023-01-21T00:15:58.320Z,10.77
2023-01-21T00:16:59.923Z,12.13
2023-01-21T00:18:01.499Z,10.97
2023-01-21T00:19:03.040Z,10.30
2023-01-21T00:20:06.266Z,9.90
2023-01-21T00:21:07.824Z,12.00
2023-01-21T00:22:09.469Z,11.97
2023-01-21T00:23:11.079Z,11.53
2023-01-21T00:24:12.633Z,10.47
2023-01-21T00:25:14.227Z,8.17
2023-01-21T00:26:15.806Z,9.63
2023-01-21T00:27:17.308Z,9.47
2023-01-21T00:28:18.975Z,8.73
2023-01-21T00:29:21.789Z,9.60
2023-01-21T00:30:23.444Z,8.97
2023-01-21T00:31:25.318Z,8.00
2023-01-21T00:32:26.873Z,9.23
2023-01-21T00:33:29.211Z,9.27
2023-01-21T00:34:30.836Z,9.83
2023-01-21T00:35:32.408Z,9.20
2023-01-21T00:36:33.935Z,11.23
2023-01-21T00:37:35.621Z,10.80
2023-01-21T00:38:37.499Z,11.90
2023-01-21T00:39:42.784Z,10.53
2023-01-21T00:40:44.292Z,10.70
2023-01-21T00:41:45.970Z,10.80
2023-01-21T00:42:47.727Z,11.57
2023-01-21T00:43:49.227Z,12.53
2023-01-21T00:44:50.793Z,11.60
2023-01-21T00:45:52.415Z,11.33
2023-01-21T00:46:53.937Z,11.77
2023-01-21T00:47:55.469Z,12.17
2023-01-21T00:48:57.059Z,11.50
2023-01-21T00:49:58.595Z,10.67
2023-01-21T00:51:01.002Z,10.40
2023-01-21T00:52:02.724Z,10.00
2023-01-21T00:53:04.232Z,10.13
2023-01-21T00:54:05.823Z,9.17
2023-01-21T00:55:07.658Z,9.37
2023-01-21T00:56:12.600Z,9.07
2023-01-21T00:57:14.415Z,8.60
2023-01-21T00:58:16.119Z,7.67
2023-01-21T00:59:17.738Z,8.30
2023-01-21T01:00:19.636Z,12.37
2023-01-21T01:01:22.593Z,13.93
2023-01-21T01:02:24.189Z,13.07
2023-01-21T01:03:25.774Z,14.33
2023-01-21T01:04:27.333Z,13.80
2023-01-21T01:05:28.931Z,13.10
2023-01-21T01:06:30.511Z,12.27
2023-01-21T01:07:32.069Z,14.33
2023-01-21T01:08:33.681Z,13.67
2023-01-21T01:09:35.268Z,14.53
2023-01-21T01:10:37.756Z,11.57
2023-01-21T01:11:39.600Z,13.77
2023-01-21T01:12:41.176Z,12.00
2023-01-21T01:13:43.567Z,11.43
2023-01-21T01:14:45.097Z,12.13
2023-01-21T01:15:47.531Z,12.93
2023-01-21T01:16:49.818Z,11.70
2023-01-21T01:17:51.370Z,15.20
2023-01-21T01:18:53.076Z,11.70
2023-01-21T01:19:54.605Z,12.60
2023-01-21T01:20:57.087Z,13.30
2023-01-21T01:21:58.731Z,12.90
2023-01-21T01:23:00.277Z,15.47
2023-01-21T01:24:03.168Z,11.40
2023-01-21T01:25:04.987Z,12.70
2023-01-21T01:26:10.039Z,14.77
2023-01-21T01:27:11.579Z,17.40
2023-01-21T01:28:13.140Z,13.13
2023-01-21T01:29:14.735Z,14.93
2023-01-21T01:30:16.689Z,14.00
2023-01-21T01:31:20.042Z,13.73
2023-01-21T01:32:21.727Z,13.30
2023-01-21T01:33:24.789Z,13.27
2023-01-21T01:34:26.296Z,13.13
2023-01-21T01:35:28.157Z,13.27
2023-01-21T01:36:29.675Z,12.07
2023-01-21T01:37:31.209Z,12.90
2023-01-21T01:38:34.759Z,13.03
2023-01-21T01:39:36.285Z,11.63
2023-01-21T01:40:37.783Z,11.50
2023-01-21T01:41:39.329Z,11.93
2023-01-21T01:42:40.939Z,11.70
2023-01-21T01:44:01.929Z,11.67
2023-01-21T01:45:14.680Z,10.90
2023-01-21T01:46:16.453Z,9.60
2023-01-21T01:47:18.860Z,10.23
2023-01-21T01:48:28.772Z,10.80
2023-01-21T01:49:30.368Z,9.10
2023-01-21T01:50:39.566Z,11.87
2023-01-21T01:51:54.800Z,15.40
2023-01-21T01:53:00.955Z,14.57
2023-01-21T01:54:02.949Z,11.77
2023-01-21T01:55:05.876Z,12.90
2023-01-21T01:56:07.730Z,17.37
2023-01-21T01:57:12.787Z,16.50
2023-01-21T01:58:17.299Z,14.83
2023-01-21T01:59:19.542Z,12.87
2023-01-21T02:00:21.640Z,11.97
2023-01-21T02:01:24.103Z,14.67
2023-01-21T02:02:25.648Z,15.03
2023-01-21T02:03:45.378Z,13.17
2023-01-21T02:05:01.941Z,14.27
2023-01-21T02:06:03.629Z,11.67
2023-01-21T02:07:05.273Z,13.40
2023-01-21T02:08:08.688Z,14.70
2023-01-21T02:09:10.253Z,12.97
2023-01-21T02:10:14.437Z,12.40
2023-01-21T02:11:18.614Z,14.60
2023-01-21T02:12:20.554Z,9.93
2023-01-21T02:13:27.191Z,10.33
2023-01-21T02:14:30.526Z,9.37
2023-01-21T02:15:46.096Z,11.50
2023-01-21T02:17:05.775Z,11.00
2023-01-21T02:18:32.369Z,12.83
2023-01-21T02:19:53.443Z,14.13
2023-01-21T02:21:03.505Z,12.03
2023-01-21T02:22:16.280Z,25.93
2023-01-21T02:23:37.056Z,9.03
2023-01-21T02:25:05.582Z,6.63
2023-01-21T02:26:44.445Z,6.53
2023-01-21T02:28:09.180Z,7.07
2023-01-21T02:29:21.893Z,6.67
2023-01-21T02:30:55.737Z,6.27
2023-01-21T02:32:22.205Z,5.60
2023-01-21T02:33:34.625Z,5.73
2023-01-21T02:34:59.135Z,5.87
2023-01-21T02:36:45.074Z,6.17
2023-01-21T02:37:58.731Z,4.30
2023-01-21T02:39:16.929Z,4.27
2023-01-21T02:40:26.804Z,5.10
2023-01-21T02:41:38.353Z,5.63
2023-01-21T02:42:50.624Z,6.70
2023-01-21T02:44:13.583Z,6.33
2023-01-21T02:45:27.389Z,6.87
2023-01-21T02:47:02.969Z,8.00
2023-01-21T02:48:47.508Z,8.30
2023-01-21T02:50:13.100Z,9.10
2023-01-21T02:51:14.684Z,10.00
2023-01-21T02:52:21.247Z,10.33
2023-01-21T02:53:31.261Z,10.33
2023-01-21T02:54:41.447Z,10.20
2023-01-21T02:55:43.610Z,10.20
2023-01-21T02:56:45.178Z,9.60
2023-01-21T02:57:54.211Z,9.80
2023-01-21T02:59:06.000Z,9.83
2023-01-21T03:00:19.001Z,8.40
2023-01-21T03:01:43.433Z,7.47
2023-01-21T03:02:54.906Z,6.83
2023-01-21T03:04:02.167Z,5.60
2023-01-21T03:05:10.156Z,5.07
2023-01-21T03:06:44.633Z,6.03
2023-01-21T03:07:59.457Z,6.00
2023-01-21T03:09:13.185Z,8.03
2023-01-21T03:10:27.248Z,8.90
2023-01-21T03:11:29.341Z,9.40
2023-01-21T03:12:48.606Z,28.27
2023-01-21T03:14:13.436Z,26.40
2023-01-21T03:15:47.161Z,15.57
2023-01-21T03:17:00.052Z,25.07
2023-01-21T03:18:10.121Z,30.97
2023-01-21T03:19:14.973Z,28.07
2023-01-21T03:20:22.407Z,14.37
2023-01-21T03:21:27.341Z,24.27
2023-01-21T03:22:34.511Z,15.10
2023-01-21T03:23:42.426Z,24.20
2023-01-21T03:24:49.727Z,20.60
2023-01-21T03:25:51.429Z,15.87
2023-01-21T03:26:57.182Z,22.70
2023-01-21T03:28:02.330Z,11.73
2023-01-21T03:29:14.853Z,21.07
2023-01-21T03:30:20.047Z,15.27
2023-01-21T03:31:28.293Z,18.30
2023-01-21T03:32:34.341Z,25.20
2023-01-21T03:33:40.248Z,21.37
2023-01-21T03:34:47.198Z,34.77
2023-01-21T03:35:52.239Z,30.33
2023-01-21T03:37:20.261Z,30.07
2023-01-21T03:38:31.484Z,13.20
2023-01-21T03:39:48.660Z,9.97
2023-01-21T03:40:59.274Z,12.43
2023-01-21T03:42:01.687Z,13.87
2023-01-21T03:43:04.032Z,12.97
2023-01-21T03:44:06.429Z,10.77
2023-01-21T03:45:09.095Z,11.60
2023-01-21T03:46:21.677Z,12.87
2023-01-21T03:47:31.333Z,9.73
2023-01-21T03:48:39.147Z,10.60
2023-01-21T03:49:58.254Z,9.10
2023-01-21T03:51:06.820Z,6.77
2023-01-21T03:52:10.498Z,7.70
2023-01-21T03:53:12.144Z,5.07
2023-01-21T03:54:14.367Z,6.20
2023-01-21T03:55:18.406Z,6.03
2023-01-21T03:56:19.955Z,5.90
2023-01-21T03:57:21.525Z,6.40
2023-01-21T03:58:23.094Z,5.33
2023-01-21T03:59:24.735Z,5.13
2023-01-21T04:00:26.298Z,5.20
2023-01-21T04:01:27.946Z,5.00
2023-01-21T04:02:29.897Z,6.27
2023-01-21T04:03:31.473Z,5.20
2023-01-21T04:04:32.998Z,6.03
2023-01-21T04:05:36.010Z,6.00
2023-01-21T04:06:37.538Z,8.07
2023-01-21T04:07:39.106Z,8.57
2023-01-21T04:08:40.786Z,7.70
2023-01-21T04:09:42.385Z,9.33
2023-01-21T04:10:43.966Z,9.27
2023-01-21T04:11:45.570Z,10.73
2023-01-21T04:12:47.097Z,8.33
2023-01-21T04:13:48.592Z,8.30
2023-01-21T04:14:50.087Z,6.17
2023-01-21T04:15:51.611Z,8.50
2023-01-21T04:16:53.209Z,6.47
2023-01-21T04:17:54.769Z,4.33
2023-01-21T04:18:56.329Z,3.87
2023-01-21T04:19:57.829Z,4.00
2023-01-21T04:20:59.586Z,3.90
2023-01-21T04:22:01.597Z,3.90
2023-01-21T04:23:03.139Z,3.37
2023-01-21T04:24:05.099Z,3.87
2023-01-21T04:25:06.807Z,4.00
2023-01-21T04:26:08.440Z,3.00
2023-01-21T04:27:09.974Z,2.90
2023-01-21T04:28:11.477Z,17.90
2023-01-21T04:29:13.063Z,9.60
2023-01-21T04:30:15.013Z,8.07
2023-01-21T04:31:16.849Z,9.70
2023-01-21T04:32:18.466Z,8.40
2023-01-21T04:33:20.859Z,9.03
2023-01-21T04:34:22.471Z,5.17
2023-01-21T04:35:24.137Z,4.43
2023-01-21T04:36:25.771Z,4.63
2023-01-21T04:37:27.345Z,3.53
2023-01-21T04:38:28.925Z,3.07
2023-01-21T04:39:30.501Z,3.00
2023-01-21T04:40:32.248Z,4.20
2023-01-21T04:41:33.831Z,4.47
2023-01-21T04:42:35.387Z,3.67
2023-01-21T04:43:36.944Z,3.63
2023-01-21T04:44:38.453Z,3.30
2023-01-21T04:45:40.089Z,2.90
2023-01-21T04:46:41.860Z,2.27
2023-01-21T04:47:43.892Z,2.73
2023-01-21T04:48:45.420Z,2.40
2023-01-21T04:49:48.799Z,2.97
2023-01-21T04:50:50.374Z,3.00
2023-01-21T04:51:52.064Z,3.53
2023-01-21T04:52:53.589Z,3.87
2023-01-21T04:53:55.218Z,3.77
2023-01-21T04:54:56.755Z,3.53
2023-01-21T04:55:58.336Z,2.67
2023-01-21T04:56:59.951Z,2.80
2023-01-21T04:58:01.495Z,2.30
2023-01-21T04:59:03.078Z,2.57
2023-01-21T05:00:06.590Z,2.67
2023-01-21T05:01:08.182Z,2.77
2023-01-21T05:02:09.731Z,2.70
2023-01-21T05:03:11.333Z,2.60
2023-01-21T05:04:12.910Z,2.63
2023-01-21T05:05:14.488Z,2.77
2023-01-21T05:06:16.083Z,2.47
2023-01-21T05:07:19.546Z,2.60
2023-01-21T05:08:22.356Z,2.30
2023-01-21T05:09:23.902Z,2.47
2023-01-21T05:10:25.486Z,2.13
2023-01-21T05:11:27.093Z,2.43
2023-01-21T05:12:28.727Z,2.40
2023-01-21T05:13:30.301Z,1.70
2023-01-21T05:14:31.903Z,1.97
2023-01-21T05:15:33.546Z,1.80
2023-01-21T05:16:35.101Z,2.23
2023-01-21T05:17:36.719Z,2.20
2023-01-21T05:18:38.824Z,2.37
2023-01-21T05:19:40.359Z,2.67
2023-01-21T05:20:41.883Z,3.10
2023-01-21T05:21:43.378Z,3.47
2023-01-21T05:22:48.820Z,6.07
2023-01-21T05:23:50.366Z,3.07
2023-01-21T05:24:51.934Z,3.97
2023-01-21T05:25:53.473Z,3.60
2023-01-21T05:26:55.073Z,3.00
2023-01-21T05:27:56.658Z,2.70
2023-01-21T05:28:58.212Z,3.27
2023-01-21T05:29:59.726Z,2.90
2023-01-21T05:31:02.151Z,2.70
2023-01-21T05:32:03.884Z,2.40
2023-01-21T05:33:05.440Z,5.67
2023-01-21T05:34:07.130Z,4.00
2023-01-21T05:35:09.017Z,4.53
2023-01-21T05:36:10.657Z,3.33
2023-01-21T05:37:12.282Z,2.97
2023-01-21T05:38:13.823Z,2.80
2023-01-21T05:39:15.425Z,2.60
2023-01-21T05:40:18.084Z,2.63
2023-01-21T05:41:21.038Z,2.00
2023-01-21T05:42:22.783Z,2.37
2023-01-21T05:43:24.767Z,2.10
2023-01-21T05:44:26.599Z,1.70
2023-01-21T05:45:28.150Z,2.67
2023-01-21T05:46:29.759Z,2.50
2023-01-21T05:47:31.332Z,2.60
2023-01-21T05:48:33.019Z,3.00
2023-01-21T05:49:35.208Z,2.90
2023-01-21T05:50:38.597Z,2.50
2023-01-21T05:51:40.146Z,3.13
2023-01-21T05:52:41.998Z,3.10
2023-01-21T05:53:44.370Z,2.93
2023-01-21T05:55:00.689Z,2.87
2023-01-21T05:56:03.902Z,2.70
2023-01-21T05:57:05.518Z,2.40
2023-01-21T05:58:07.247Z,1.83
2023-01-21T05:59:09.574Z,2.70
2023-01-21T06:00:11.739Z,2.40
2023-01-21T06:01:13.272Z,2.50
2023-01-21T06:02:14.852Z,2.00
2023-01-21T06:03:17.673Z,2.80
2023-01-21T06:04:19.382Z,3.03
2023-01-21T06:05:20.995Z,2.90
2023-01-21T06:06:22.536Z,2.50
2023-01-21T06:07:24.160Z,2.90
2023-01-21T06:08:25.848Z,2.43
2023-01-21T06:09:27.388Z,2.47
2023-01-21T06:10:28.911Z,2.70
2023-01-21T06:11:30.741Z,2.67
2023-01-21T06:12:32.293Z,3.17
2023-01-21T06:13:33.883Z,2.97
2023-01-21T06:14:35.419Z,3.80
2023-01-21T06:15:36.997Z,3.30
2023-01-21T06:16:38.535Z,3.10
2023-01-21T06:17:40.525Z,3.43
2023-01-21T06:18:42.237Z,3.73
2023-01-21T06:19:43.793Z,2.20
2023-01-21T06:20:45.411Z,2.30
2023-01-21T06:21:46.906Z,3.20
2023-01-21T06:22:48.477Z,3.33
2023-01-21T06:23:49.985Z,4.40
2023-01-21T06:24:51.480Z,5.90
2023-01-21T06:25:53.122Z,5.40
2023-01-21T06:26:54.781Z,5.70
2023-01-21T06:27:56.716Z,8.07
2023-01-21T06:28:58.243Z,8.93
2023-01-21T06:29:59.748Z,9.00
2023-01-21T06:31:01.397Z,6.60
2023-01-21T06:32:03.410Z,4.90
2023-01-21T06:33:05.075Z,4.40
2023-01-21T06:34:06.601Z,3.10
2023-01-21T06:35:08.576Z,2.20
2023-01-21T06:36:10.454Z,2.17
2023-01-21T06:37:19.121Z,2.23
2023-01-21T06:38:20.628Z,2.10
2023-01-21T06:39:22.218Z,1.77
2023-01-21T06:40:24.694Z,1.30
2023-01-21T06:41:26.279Z,1.03
2023-01-21T06:42:27.877Z,1.30
2023-01-21T06:43:29.499Z,1.00
2023-01-21T06:44:31.201Z,1.37
2023-01-21T06:45:32.739Z,1.30
2023-01-21T06:46:34.404Z,0.90
2023-01-21T06:47:36.026Z,1.10
2023-01-21T06:48:37.600Z,1.70
2023-01-21T06:49:39.457Z,1.33
2023-01-21T06:50:41.004Z,1.50
2023-01-21T06:51:43.136Z,1.63
2023-01-21T06:52:47.078Z,2.00
2023-01-21T06:53:48.585Z,1.30
2023-01-21T06:54:50.239Z,1.77
2023-01-21T06:55:51.750Z,1.50
2023-01-21T06:56:53.327Z,1.40
2023-01-21T06:57:54.892Z,1.60
2023-01-21T06:58:56.494Z,1.63
2023-01-21T06:59:58.042Z,1.30
2023-01-21T07:00:59.604Z,1.10
2023-01-21T07:02:01.471Z,1.20
2023-01-21T07:03:03.092Z,0.80
2023-01-21T07:04:04.721Z,0.90
2023-01-21T07:05:06.705Z,1.03
2023-01-21T07:06:09.894Z,1.20
2023-01-21T07:07:11.549Z,0.90
2023-01-21T07:08:13.083Z,0.93
2023-01-21T07:09:14.624Z,1.33
2023-01-21T07:10:16.863Z,1.23
2023-01-21T07:11:18.566Z,0.90
2023-01-21T07:12:20.123Z,1.13
2023-01-21T07:13:21.701Z,1.00
2023-01-21T07:14:23.253Z,1.10
2023-01-21T07:15:24.904Z,1.00
2023-01-21T07:16:27.005Z,1.63
2023-01-21T07:17:28.535Z,1.27
2023-01-21T07:18:30.108Z,1.10
2023-01-21T07:19:31.660Z,1.50
2023-01-21T07:20:33.213Z,2.00
2023-01-21T07:21:34.799Z,1.60
2023-01-21T07:22:36.371Z,1.60
2023-01-21T07:23:37.929Z,1.67
2023-01-21T07:24:39.476Z,1.57
2023-01-21T07:25:41.030Z,1.53
2023-01-21T07:26:43.244Z,1.70
2023-01-21T07:27:44.756Z,1.60
2023-01-21T07:28:46.421Z,1.93
2023-01-21T07:29:47.990Z,1.50
2023-01-21T07:30:49.560Z,1.50
2023-01-21T07:31:51.521Z,1.60
2023-01-21T07:32:53.115Z,1.77
2023-01-21T07:33:54.848Z,1.67
2023-01-21T07:34:56.370Z,1.57
2023-01-21T07:35:57.877Z,1.20
2023-01-21T07:36:59.487Z,1.73
2023-01-21T07:38:01.569Z,1.40
2023-01-21T07:39:03.393Z,1.60
2023-01-21T07:40:05.340Z,1.40
2023-01-21T07:41:06.849Z,1.30
2023-01-21T07:42:10.299Z,1.43
2023-01-21T07:43:11.905Z,1.40
2023-01-21T07:44:13.508Z,1.80
2023-01-21T07:45:15.528Z,1.73
2023-01-21T07:46:21.353Z,1.60
2023-01-21T07:47:23.212Z,1.93
2023-01-21T07:48:24.793Z,1.53
2023-01-21T07:49:26.348Z,2.37
2023-01-21T07:50:27.885Z,1.80
2023-01-21T07:51:29.407Z,1.40
2023-01-21T07:52:32.266Z,1.40
2023-01-21T07:53:33.858Z,1.50
2023-01-21T07:54:35.378Z,1.50
2023-01-21T07:55:37.436Z,1.20
2023-01-21T07:56:39.178Z,1.40
2023-01-21T07:57:40.833Z,1.37
2023-01-21T07:58:42.486Z,1.50
2023-01-21T07:59:44.095Z,1.07
2023-01-21T08:00:45.697Z,1.13
2023-01-21T08:01:47.329Z,1.37
2023-01-21T08:02:54.176Z,1.40
2023-01-21T08:03:55.760Z,1.57
2023-01-21T08:04:57.272Z,1.67
2023-01-21T08:05:58.808Z,1.30
2023-01-21T08:07:01.945Z,1.10
2023-01-21T08:08:03.566Z,1.23
2023-01-21T08:09:05.239Z,1.23
2023-01-21T08:10:06.974Z,1.23
2023-01-21T08:11:08.565Z,1.50
2023-01-21T08:12:10.689Z,1.33
2023-01-21T08:13:12.210Z,1.23
2023-01-21T08:14:13.920Z,1.40
2023-01-21T08:15:15.723Z,1.50
2023-01-21T08:16:17.508Z,1.33
2023-01-21T08:17:19.120Z,1.30
2023-01-21T08:18:24.801Z,1.10
2023-01-21T08:19:26.514Z,1.30
2023-01-21T08:20:28.131Z,1.70
2023-01-21T08:21:29.825Z,1.27
2023-01-21T08:22:31.432Z,1.37
2023-01-21T08:23:32.943Z,1.10
2023-01-21T08:24:34.547Z,1.20
2023-01-21T08:25:36.224Z,1.40
2023-01-21T08:26:38.134Z,1.70
2023-01-21T08:27:39.673Z,1.13
2023-01-21T08:28:41.323Z,1.50
2023-01-21T08:29:43.169Z,1.33
2023-01-21T08:30:44.941Z,1.53
2023-01-21T08:31:46.626Z,1.70
2023-01-21T08:32:48.233Z,1.40
2023-01-21T08:33:53.367Z,1.27
2023-01-21T08:34:55.130Z,1.30
2023-01-21T08:36:01.186Z,1.20
2023-01-21T08:37:02.870Z,2.40
2023-01-21T08:38:04.674Z,2.20
2023-01-21T08:39:06.400Z,1.40
2023-01-21T08:40:08.635Z,1.00
2023-01-21T08:41:10.842Z,1.30
2023-01-21T08:42:12.411Z,1.30
2023-01-21T08:43:13.948Z,0.93
2023-01-21T08:44:15.528Z,1.20
2023-01-21T08:45:17.556Z,1.77
2023-01-21T08:46:19.330Z,1.60
2023-01-21T08:47:20.954Z,1.10
2023-01-21T08:48:22.611Z,1.50
2023-01-21T08:49:24.139Z,1.70
2023-01-21T08:50:25.916Z,1.67
2023-01-21T08:51:27.428Z,1.50
2023-01-21T08:52:28.957Z,1.63
2023-01-21T08:53:30.515Z,2.33
2023-01-21T08:54:32.034Z,2.60
2023-01-21T08:55:33.638Z,2.80
2023-01-21T08:56:35.318Z,2.63
2023-01-21T08:57:36.889Z,2.10
2023-01-21T08:58:38.627Z,2.27
2023-01-21T08:59:40.131Z,1.47
2023-01-21T09:00:41.999Z,1.53
2023-01-21T09:01:43.672Z,1.73
2023-01-21T09:02:45.477Z,0.80
2023-01-21T09:03:47.053Z,1.20
2023-01-21T09:04:50.560Z,1.40
2023-01-21T09:05:53.021Z,1.00
2023-01-21T09:06:54.652Z,0.97
2023-01-21T09:07:58.179Z,1.10
2023-01-21T09:09:00.013Z,1.30
2023-01-21T09:10:02.246Z,1.30
2023-01-21T09:11:06.955Z,1.20
2023-01-21T09:12:08.736Z,1.03
2023-01-21T09:13:10.955Z,1.20
2023-01-21T09:14:12.489Z,1.53
2023-01-21T09:15:14.142Z,1.83
2023-01-21T09:16:18.880Z,1.13
2023-01-21T09:17:20.529Z,1.47
2023-01-21T09:18:22.181Z,0.90
2023-01-21T09:19:24.013Z,1.00
2023-01-21T09:20:25.558Z,0.70
2023-01-21T09:21:27.586Z,1.00
2023-01-21T09:22:29.080Z,0.80
2023-01-21T09:23:34.102Z,0.97
2023-01-21T09:24:35.636Z,1.30
2023-01-21T09:25:37.154Z,0.80
2023-01-21T09:26:44.015Z,0.83
2023-01-21T09:27:45.572Z,1.30
2023-01-21T09:28:53.115Z,0.87
2023-01-21T09:29:54.860Z,1.30
2023-01-21T09:31:01.788Z,1.50
2023-01-21T09:32:05.246Z,1.20
2023-01-21T09:33:06.868Z,1.20
2023-01-21T09:34:11.759Z,1.00
2023-01-21T09:35:13.439Z,1.00
2023-01-21T09:36:19.081Z,0.80
2023-01-21T09:37:20.624Z,0.90
2023-01-21T09:38:22.492Z,1.10
2023-01-21T09:39:24.367Z,0.70
2023-01-21T09:40:25.889Z,1.20
2023-01-21T09:41:39.644Z,1.20
2023-01-21T09:42:42.801Z,1.37
2023-01-21T09:43:49.497Z,1.10
2023-01-21T09:44:53.758Z,1.70
2023-01-21T09:46:03.817Z,1.40
2023-01-21T09:47:29.014Z,1.13
2023-01-21T09:48:40.320Z,1.20
2023-01-21T09:49:51.341Z,1.43
2023-01-21T09:50:53.804Z,1.20
2023-01-21T09:52:13.787Z,1.33
2023-01-21T09:53:28.483Z,1.07
2023-01-21T09:54:34.133Z,1.20
2023-01-21T09:55:37.604Z,1.27
2023-01-21T09:57:09.925Z,0.90
2023-01-21T09:58:18.694Z,1.07
2023-01-21T09:59:40.067Z,0.90
2023-01-21T10:01:24.400Z,0.97
2023-01-21T10:02:32.085Z,1.27
2023-01-21T10:03:43.745Z,0.90
2023-01-21T10:04:59.811Z,1.30
2023-01-21T10:06:22.044Z,1.30
2023-01-21T10:07:32.756Z,1.60
2023-01-21T10:08:46.059Z,1.37
2023-01-21T10:10:18.225Z,1.50
2023-01-21T10:11:28.515Z,1.50
2023-01-21T10:13:16.276Z,1.47
2023-01-21T10:14:39.447Z,2.00
2023-01-21T10:15:56.049Z,1.53
2023-01-21T10:17:15.949Z,1.93
2023-01-21T10:18:24.888Z,1.83
2023-01-21T10:19:35.692Z,1.60
2023-01-21T10:20:52.287Z,1.07
2023-01-21T10:22:15.612Z,1.47
2023-01-21T10:23:29.327Z,0.97
2023-01-21T10:24:38.709Z,1.47
2023-01-21T10:25:41.146Z,4.33
2023-01-21T10:26:47.143Z,4.80
2023-01-21T10:27:48.744Z,3.40
2023-01-21T10:28:55.055Z,4.33
2023-01-21T10:30:02.217Z,4.73
2023-01-21T10:31:23.434Z,2.40
2023-01-21T10:32:27.140Z,2.30
2023-01-21T10:33:32.959Z,3.00
2023-01-21T10:34:40.109Z,2.30
2023-01-21T10:36:03.769Z,1.50
2023-01-21T10:37:23.376Z,1.50
2023-01-21T10:38:49.460Z,1.20
2023-01-21T10:39:56.836Z,1.00
2023-01-21T10:41:07.611Z,1.03
2023-01-21T10:42:34.655Z,1.40
2023-01-21T10:43:36.182Z,1.07
2023-01-21T10:44:56.534Z,1.23
2023-01-21T10:46:24.456Z,1.20
2023-01-21T10:47:48.081Z,1.03
2023-01-21T10:48:58.159Z,1.53
2023-01-21T10:50:30.276Z,1.40
2023-01-21T10:51:41.393Z,1.10
2023-01-21T10:52:50.636Z,1.43
2023-01-21T10:53:56.460Z,1.40
2023-01-21T10:55:21.053Z,1.37
2023-01-21T10:56:50.212Z,1.47
2023-01-21T10:57:58.401Z,1.50
2023-01-21T10:59:07.714Z,1.20
2023-01-21T11:00:34.083Z,1.57
2023-01-21T11:01:40.724Z,1.67
2023-01-21T11:02:42.555Z,1.93
2023-01-21T11:03:48.392Z,1.90
2023-01-21T11:04:51.246Z,1.70
2023-01-21T11:05:52.862Z,1.50
2023-01-21T11:07:03.239Z,2.23
2023-01-21T11:08:04.909Z,2.43
2023-01-21T11:09:10.708Z,2.20
2023-01-21T11:10:22.238Z,2.10
2023-01-21T11:11:30.362Z,2.23
2023-01-21T11:12:32.965Z,2.27
2023-01-21T11:13:35.519Z,1.93
2023-01-21T11:14:37.142Z,2.13
2023-01-21T11:15:44.576Z,1.90
2023-01-21T11:16:49.552Z,2.23
2023-01-21T11:17:59.701Z,2.30
2023-01-21T11:19:02.712Z,2.43
2023-01-21T11:20:16.735Z,2.20
2023-01-21T11:21:22.651Z,1.67
2023-01-21T11:22:25.253Z,2.80
2023-01-21T11:23:35.976Z,2.10
2023-01-21T11:24:46.502Z,2.20
2023-01-21T11:25:49.106Z,2.10
2023-01-21T11:26:55.410Z,2.30
2023-01-21T11:27:56.974Z,2.80
2023-01-21T11:29:16.156Z,2.50
2023-01-21T11:30:51.559Z,2.17
2023-01-21T11:32:04.980Z,2.23
2023-01-21T11:33:32.887Z,2.43
2023-01-21T11:34:34.605Z,1.73
2023-01-21T11:35:36.726Z,1.90
2023-01-21T11:36:53.445Z,2.20
2023-01-21T11:37:55.229Z,2.17
2023-01-21T11:39:05.485Z,2.47
2023-01-21T11:40:12.150Z,1.80
2023-01-21T11:41:13.626Z,2.03
2023-01-21T11:42:17.255Z,2.00
2023-01-21T11:43:48.234Z,1.90
2023-01-21T11:44:53.863Z,1.90
2023-01-21T11:45:55.773Z,1.80
2023-01-21T11:46:57.456Z,2.00
2023-01-21T11:48:00.277Z,1.70
2023-01-21T11:49:07.607Z,1.50
2023-01-21T11:50:30.325Z,1.60
2023-01-21T11:51:32.718Z,1.40
2023-01-21T11:52:34.239Z,1.30
2023-01-21T11:53:35.869Z,1.40
2023-01-21T11:54:41.685Z,1.47
2023-01-21T11:55:52.893Z,1.10
2023-01-21T11:57:02.871Z,1.40
2023-01-21T11:58:04.556Z,1.27
2023-01-21T11:59:34.743Z,1.30
2023-01-21T12:00:36.548Z,1.67
2023-01-21T12:01:38.176Z,1.40
2023-01-21T12:02:45.802Z,1.50
2023-01-21T12:04:01.013Z,1.70
2023-01-21T12:05:13.113Z,1.40
2023-01-21T12:06:24.331Z,1.40
2023-01-21T12:07:34.102Z,1.80
2023-01-21T12:08:38.534Z,1.50
2023-01-21T12:09:40.426Z,1.60
2023-01-21T12:10:46.667Z,2.30
2023-01-21T12:12:31.357Z,2.00
2023-01-21T12:13:46.208Z,2.47
2023-01-21T12:14:54.221Z,2.40
2023-01-21T12:16:14.313Z,2.90
2023-01-21T12:17:45.001Z,3.33
2023-01-21T12:19:20.310Z,3.60
2023-01-21T12:20:40.312Z,5.03
2023-01-21T12:22:03.661Z,5.03
2023-01-21T12:23:37.736Z,4.80
2023-01-21T12:25:07.724Z,4.90
2023-01-21T12:26:21.142Z,4.70
2023-01-21T12:27:41.076Z,5.23
2023-01-21T12:29:02.571Z,4.20
2023-01-21T12:30:16.785Z,4.07
2023-01-21T12:31:25.130Z,3.97
2023-01-21T12:32:37.384Z,2.90
2023-01-21T12:33:50.556Z,2.63
2023-01-21T12:34:58.184Z,3.57
2023-01-21T12:36:14.410Z,3.70
2023-01-21T12:37:33.175Z,3.67
2023-01-21T12:38:41.060Z,4.10
2023-01-21T12:39:44.996Z,3.20
2023-01-21T12:41:27.256Z,3.80
2023-01-21T12:42:34.969Z,4.33
2023-01-21T12:43:48.297Z,4.93
2023-01-21T12:45:04.850Z,4.93
2023-01-21T12:46:19.697Z,3.43
2023-01-21T12:47:40.162Z,3.23
2023-01-21T12:49:06.467Z,3.80
2023-01-21T12:50:36.232Z,3.83
2023-01-21T12:51:42.253Z,2.50
2023-01-21T12:53:13.549Z,3.37
2023-01-21T12:54:48.191Z,3.43
2023-01-21T12:55:58.931Z,2.87
2023-01-21T12:57:12.054Z,3.20
2023-01-21T12:58:18.513Z,2.77
2023-01-21T12:59:29.917Z,3.07
2023-01-21T13:00:37.830Z,3.27
2023-01-21T13:01:57.431Z,3.00
2023-01-21T13:03:18.558Z,3.00
2023-01-21T13:04:52.328Z,2.60
2023-01-21T13:06:17.071Z,2.30
2023-01-21T13:07:37.457Z,2.60
2023-01-21T13:08:54.132Z,3.30
2023-01-21T13:10:21.926Z,3.97
2023-01-21T13:11:38.474Z,4.33
2023-01-21T13:12:44.141Z,3.03
2023-01-21T13:13:54.374Z,2.70
2023-01-21T13:15:13.743Z,3.30
2023-01-21T13:16:15.338Z,3.00
2023-01-21T13:17:29.045Z,3.00
2023-01-21T13:18:36.827Z,3.47
2023-01-21T13:19:38.375Z,2.70
2023-01-21T13:20:46.620Z,3.20
2023-01-21T13:22:23.445Z,2.77
2023-01-21T13:24:06.067Z,3.60
2023-01-21T13:25:44.819Z,2.77
2023-01-21T13:27:21.233Z,2.50
2023-01-21T13:28:36.631Z,2.50
2023-01-21T13:29:47.354Z,1.97
2023-01-21T13:31:12.034Z,2.70
2023-01-21T13:32:23.798Z,2.80
2023-01-21T13:33:41.864Z,3.27
2023-01-21T13:34:55.867Z,2.97
2023-01-21T13:36:32.701Z,3.00
2023-01-21T13:37:47.259Z,3.20
2023-01-21T13:39:19.291Z,2.73
2023-01-21T13:41:05.988Z,2.20
2023-01-21T13:42:36.758Z,2.50
2023-01-21T13:44:03.380Z,2.07
2023-01-21T13:45:29.244Z,2.90
2023-01-21T13:46:58.684Z,2.83
2023-01-21T13:48:09.053Z,3.10
2023-01-21T13:49:16.714Z,3.00
2023-01-21T13:50:30.024Z,3.00
2023-01-21T13:51:48.971Z,3.20
2023-01-21T13:53:17.681Z,3.70
2023-01-21T13:54:21.928Z,2.20
2023-01-21T13:55:39.360Z,2.80
2023-01-21T13:57:04.047Z,2.17
2023-01-21T13:58:13.181Z,1.87
2023-01-21T13:59:24.233Z,2.27
2023-01-21T14:00:39.823Z,2.43
2023-01-21T14:01:49.551Z,2.93
2023-01-21T14:02:53.660Z,2.10
2023-01-21T14:04:05.998Z,2.20
2023-01-21T14:05:20.317Z,1.87
2023-01-21T14:06:40.203Z,2.23
2023-01-21T14:08:05.460Z,2.10
2023-01-21T14:09:21.285Z,2.50
2023-01-21T14:10:34.556Z,2.30
2023-01-21T14:12:30.198Z,2.90
2023-01-21T14:13:31.666Z,3.30
2023-01-21T14:15:10.695Z,2.63
2023-01-21T14:16:30.527Z,3.13
2023-01-21T14:17:44.132Z,3.10
2023-01-21T14:18:51.896Z,3.33
2023-01-21T14:20:15.521Z,3.57
2023-01-21T14:21:28.336Z,3.90
2023-01-21T14:22:48.528Z,3.50
2023-01-21T14:23:52.768Z,3.87
2023-01-21T14:25:13.485Z,4.13
2023-01-21T14:26:24.021Z,3.87
2023-01-21T14:27:46.188Z,5.37
2023-01-21T14:28:53.888Z,4.30
2023-01-21T14:30:15.988Z,3.70
2023-01-21T14:31:25.183Z,2.77
2023-01-21T14:32:35.251Z,3.00
2023-01-21T14:33:50.430Z,2.50
2023-01-21T14:35:15.922Z,2.17
2023-01-21T14:36:23.848Z,3.67
2023-01-21T14:37:44.606Z,2.30
2023-01-21T14:38:54.995Z,2.37
2023-01-21T14:40:18.656Z,2.70
2023-01-21T14:41:20.879Z,2.30
2023-01-21T14:42:40.723Z,2.47
2023-01-21T14:43:42.199Z,2.20
2023-01-21T14:44:49.298Z,2.97
2023-01-21T14:45:56.012Z,2.77
2023-01-21T14:47:25.062Z,3.10
2023-01-21T14:48:41.138Z,3.10
2023-01-21T14:49:46.651Z,2.80
2023-01-21T14:50:52.152Z,3.80